Terminal Aerodrome Forecast
Issued by NWS

Home | Current Version | Previous Version | Text Only | Print | Product List | Glossary On
Versions: 1 2 3 4 5 6 7 8 9 10 11 12 13 14 15 16 17 18 19 20 21 22 23 24 25 26 27 28
000
FTUS44 KOUN 272320
TAFCSM
TAF
KCSM 272320Z 2800/2824 18014G20KT P6SM FEW030 SCT040
      TEMPO 2801/2804 6SM -TSRA BKN030CB
     FM280600 16011KT P6SM OVC025 PROB30 2812/2816 -SHRA BKN025
     FM281800 19012G18KT P6SM BKN030=

USA.gov is the U.S. government's official web portal to all federal, state and local government web resources and services.